Aérodrome :
LOGIN :

S'inscrire | Disclaimer

   EN    FR    IT 

 










Légende :    VFR   VFR Marginal   IFR   IFR Intensif   IFR Très Intensif
Visi : 
Plafond : 
>= 8 km
>= 3000ft
5 à 8 km
1000 à 3000 ft
1500m à 5 km
500 à 1000 ft
800 à 1500m
200 à 500 ft
< 800m
< 200 ft
Symboles :   Orages  Brouillard  Fortes neiges  Fortes précipitations  Vent > 20 kt
SIGMETs :   Divers  Orages  Givrage  Turbulence  Onde Orograph.  Cendres Volcan.







- Altitude de l'aérodrome : 788 ft
- Code IATA : DCM
- Voir les cartes d'approche


LFCK - Castres-Mazamet

DERNIER METAR :
  • 131800Z AUTO 16006KT CAVOK 07/06 Q1017 TEMPO BKN012

METARs EXPIRÉS :
  • 131730Z AUTO 14004KT 090V190 CAVOK 07/05 Q1017 TEMPO BKN012
  • 131700Z AUTO 11003KT CAVOK 07/05 Q1017 NOSIG
  • 131630Z AUTO 09004KT 9999 FEW029 BKN088 OVC110 07/05 Q1017 NOSIG
  • 131600Z AUTO 12004KT 9999 FEW027 BKN082 07/05 Q1018 NOSIG
  • 131530Z AUTO 15004KT 9999 -RA BKN027 OVC035 08/06 Q1018 NOSIG

TAF TAF LFCK
Valide du 13 à 18h jusqu'au 14 à 03h UTC


131700Z 1318/1403 VRB02KT CAVOK
BECMG 1318/1320 25005KT BKN035
TEMPO 1318/1403 -RA BKN012
BECMG 1321/1323 26012KT
Pas de NOTAMs connus pour ce terrain.
1 SIGMET publié pour la FIR Bordeaux (LFBB) :
 
Turbulence forte
LFBB SIGMET 1 VALID 131600/132000 LFPW
LFBB BORDEAUX FIR/UIR SEV TURB FCST WI N4445 W00145 - N4630 W00130 - N4630 W00015 - N4715 W00015 - N4715 E00200 - N4700 E00215 - N4545 E00130 - N4445 W00145 SFC/FL050 MOV E 40KT INTSF=



MET'MAP, la Météo Aéronautique d'un coup d'oeil ! - Copyright ORBIFLY Décembre 2007 - Disclaimer

ORBIFLY MET'MAP TEAM :

Programmation & Développement : Alexandra Zaïnal
Conception & Développement : Baudouin d'Aumeries
Co-Programmation & Développement : Marc-Olivier Méhu
Soutien technique & logistique : Manuel Goepfert

Contact : metmap@orbifly.com




SOURCES & CREDITS :

   NOAA